createdAt,value
2022-10-26T00:00:53.741Z,7.27
2022-10-26T00:03:21.384Z,7.37
2022-10-26T00:05:48.676Z,7.37
2022-10-26T00:08:16.017Z,6.87
2022-10-26T00:10:43.496Z,7.10
2022-10-26T00:13:12.576Z,7.93
2022-10-26T00:15:42.128Z,7.47
2022-10-26T00:18:10.252Z,7.13
2022-10-26T00:20:37.675Z,7.70
2022-10-26T00:23:05.040Z,7.77
2022-10-26T00:25:32.504Z,8.57
2022-10-26T00:27:59.855Z,8.83
2022-10-26T00:30:27.524Z,8.47
2022-10-26T00:32:54.821Z,8.47
2022-10-26T00:35:23.964Z,7.97
2022-10-26T00:38:01.683Z,8.50
2022-10-26T00:40:29.559Z,7.33
2022-10-26T00:42:57.220Z,8.17
2022-10-26T00:45:27.761Z,8.70
2022-10-26T00:48:00.377Z,9.07
2022-10-26T00:50:36.773Z,8.73
2022-10-26T00:53:06.855Z,7.97
2022-10-26T00:55:38.842Z,8.67
2022-10-26T00:58:09.322Z,9.30
2022-10-26T01:00:36.607Z,8.93
2022-10-26T01:03:08.253Z,8.67
2022-10-26T01:05:38.557Z,9.33
2022-10-26T01:08:06.161Z,8.53
2022-10-26T01:10:33.601Z,8.57
2022-10-26T01:13:01.263Z,8.90
2022-10-26T01:15:38.710Z,8.97
2022-10-26T01:18:17.009Z,9.13
2022-10-26T01:21:23.741Z,9.73
2022-10-26T01:24:30.459Z,11.67
2022-10-26T01:27:37.278Z,9.47
2022-10-26T01:30:44.049Z,10.57
2022-10-26T01:33:36.736Z,8.77
2022-10-26T01:39:12.367Z,9.07
2022-10-26T01:42:04.397Z,8.85
2022-10-26T01:44:39.757Z,9.57
2022-10-26T01:47:08.812Z,10.40
2022-10-26T01:49:40.839Z,8.80
2022-10-26T01:52:10.475Z,8.90
2022-10-26T01:57:09.248Z,10.30
2022-10-26T02:00:01.682Z,9.50
2022-10-26T02:03:04.555Z,10.30
2022-10-26T02:06:01.269Z,9.30
2022-10-26T02:09:07.956Z,8.60
2022-10-26T02:11:47.101Z,9.10
2022-10-26T02:14:40.257Z,9.13
2022-10-26T02:17:19.847Z,9.67
2022-10-26T02:19:55.849Z,10.13
2022-10-26T02:22:28.662Z,10.27
2022-10-26T02:24:59.734Z,10.20
2022-10-26T02:27:31.857Z,11.10
2022-10-26T02:30:01.054Z,10.67
2022-10-26T02:32:31.053Z,10.17
2022-10-26T02:35:00.349Z,11.00
2022-10-26T02:37:28.470Z,11.30
2022-10-26T02:39:57.704Z,10.73
2022-10-26T02:42:27.190Z,11.07
2022-10-26T02:44:58.466Z,13.10
2022-10-26T02:47:26.881Z,12.50
2022-10-26T02:49:55.022Z,12.00
2022-10-26T02:52:50.026Z,13.73
2022-10-26T02:55:31.557Z,12.82
2022-10-26T02:58:02.996Z,13.17
2022-10-26T03:00:30.516Z,12.87
2022-10-26T03:02:59.654Z,14.53
2022-10-26T03:05:28.722Z,14.67
2022-10-26T03:07:56.235Z,16.07
2022-10-26T03:10:23.764Z,14.20
2022-10-26T03:12:51.608Z,15.10
2022-10-26T03:15:19.232Z,15.10
2022-10-26T03:17:46.795Z,15.50
2022-10-26T03:20:14.389Z,13.27
2022-10-26T03:22:41.848Z,14.80
2022-10-26T03:27:36.544Z,15.90
2022-10-26T03:30:04.016Z,15.90
2022-10-26T03:32:31.309Z,16.33
2022-10-26T03:34:58.636Z,15.50
2022-10-26T03:37:25.963Z,16.00
2022-10-26T03:39:53.294Z,14.80
2022-10-26T03:42:20.625Z,14.07
2022-10-26T03:44:48.421Z,13.57
2022-10-26T03:47:15.714Z,15.27
2022-10-26T03:49:43.093Z,15.30
2022-10-26T03:52:10.396Z,15.63
2022-10-26T03:54:37.757Z,15.13
2022-10-26T03:57:05.168Z,16.03
2022-10-26T03:59:32.477Z,15.73
2022-10-26T04:01:59.819Z,14.70
2022-10-26T04:04:27.305Z,14.53
2022-10-26T04:06:54.378Z,14.17
2022-10-26T04:09:24.681Z,13.40
2022-10-26T04:11:52.065Z,13.17
2022-10-26T04:14:19.362Z,13.47
2022-10-26T04:16:46.796Z,13.80
2022-10-26T04:19:14.111Z,14.63
2022-10-26T04:21:41.534Z,15.17
2022-10-26T04:24:08.948Z,14.33
2022-10-26T04:26:36.227Z,14.90
2022-10-26T04:29:06.898Z,12.63
2022-10-26T04:31:34.397Z,12.10
2022-10-26T04:34:01.828Z,11.83
2022-10-26T04:36:29.118Z,12.93
2022-10-26T04:38:56.422Z,13.10
2022-10-26T04:41:23.768Z,11.87
2022-10-26T04:43:51.054Z,12.43
2022-10-26T04:46:18.504Z,10.60
2022-10-26T04:48:45.963Z,11.90
2022-10-26T04:51:13.303Z,12.17
2022-10-26T04:53:40.633Z,11.53
2022-10-26T04:56:08.144Z,11.00
2022-10-26T04:58:35.469Z,11.13
2022-10-26T05:01:03.580Z,10.73
2022-10-26T05:03:31.081Z,10.73
2022-10-26T05:06:00.569Z,12.47
2022-10-26T05:08:30.250Z,17.40
2022-10-26T05:10:57.763Z,13.10
2022-10-26T05:15:55.390Z,14.50
2022-10-26T05:18:22.723Z,19.37
2022-10-26T05:20:53.171Z,12.40
2022-10-26T05:23:20.545Z,12.00
2022-10-26T05:25:49.039Z,11.70
2022-10-26T05:28:17.253Z,11.57
2022-10-26T05:30:46.356Z,11.10
2022-10-26T05:33:14.510Z,12.27
2022-10-26T05:35:41.977Z,12.07
2022-10-26T05:38:10.796Z,11.73
2022-10-26T05:40:38.329Z,13.20
2022-10-26T05:43:05.655Z,13.10
2022-10-26T05:45:32.962Z,15.10
2022-10-26T05:48:02.781Z,15.53
2022-10-26T05:50:30.518Z,17.57
2022-10-26T05:52:57.900Z,14.03
2022-10-26T05:55:25.517Z,29.30
2022-10-26T05:57:53.226Z,15.87
2022-10-26T06:00:23.229Z,32.80
2022-10-26T06:03:16.076Z,28.17
2022-10-26T06:06:01.627Z,27.63
2022-10-26T06:08:32.029Z,13.50
2022-10-26T06:10:59.853Z,15.07
2022-10-26T06:13:27.332Z,15.17
2022-10-26T06:16:27.089Z,17.23
2022-10-26T06:19:33.757Z,22.83
2022-10-26T06:22:29.963Z,22.17
2022-10-26T06:25:24.434Z,20.83
2022-10-26T06:30:59.502Z,17.57
2022-10-26T06:33:30.333Z,18.47
2022-10-26T06:36:37.562Z,13.57
2022-10-26T06:39:09.287Z,15.30
2022-10-26T06:41:37.311Z,13.90
2022-10-26T06:44:05.491Z,11.73
2022-10-26T06:46:54.754Z,13.13
2022-10-26T06:49:41.525Z,14.10
2022-10-26T06:52:37.715Z,13.53
2022-10-26T06:55:05.506Z,10.07
2022-10-26T06:57:35.931Z,13.17
2022-10-26T07:00:08.457Z,10.50
2022-10-26T07:02:35.970Z,10.47
2022-10-26T07:05:03.429Z,11.10
2022-10-26T07:07:31.909Z,10.17
2022-10-26T07:09:59.370Z,8.60
2022-10-26T07:12:30.739Z,9.13
2022-10-26T07:15:00.871Z,9.63
2022-10-26T07:17:29.192Z,7.90
2022-10-26T07:19:56.798Z,8.93
2022-10-26T07:22:25.328Z,9.43
2022-10-26T07:24:53.395Z,9.07
2022-10-26T07:27:20.795Z,8.07
2022-10-26T07:29:48.198Z,8.73
2022-10-26T07:32:15.522Z,8.47
2022-10-26T07:34:42.841Z,8.50
2022-10-26T07:37:10.166Z,8.83
2022-10-26T07:39:37.441Z,9.43
2022-10-26T07:42:04.867Z,8.10
2022-10-26T07:44:32.144Z,7.80
2022-10-26T07:47:00.041Z,7.13
2022-10-26T07:49:27.963Z,7.67
2022-10-26T07:51:55.502Z,7.80
2022-10-26T07:54:23.148Z,7.83
2022-10-26T07:56:50.823Z,8.83
2022-10-26T07:59:18.468Z,9.23
2022-10-26T08:01:45.922Z,9.00
2022-10-26T08:04:13.284Z,7.80
2022-10-26T08:06:40.657Z,7.87
2022-10-26T08:09:08.001Z,7.37
2022-10-26T08:11:37.141Z,8.10
2022-10-26T08:14:05.235Z,7.37
2022-10-26T08:16:34.798Z,8.10
2022-10-26T08:19:02.198Z,8.57
2022-10-26T08:21:39.073Z,7.00
2022-10-26T08:24:07.646Z,7.33
2022-10-26T08:26:35.023Z,6.73
2022-10-26T08:29:02.482Z,7.87
2022-10-26T08:31:29.789Z,6.27
2022-10-26T08:33:57.161Z,5.90
2022-10-26T08:36:26.161Z,7.83
2022-10-26T08:38:53.777Z,7.17
2022-10-26T08:41:33.603Z,7.70
2022-10-26T08:44:06.923Z,6.70
2022-10-26T08:46:39.928Z,8.17
2022-10-26T08:49:31.089Z,7.83
2022-10-26T08:52:02.112Z,7.37
2022-10-26T08:54:41.666Z,7.40
2022-10-26T08:57:25.766Z,6.93
2022-10-26T09:00:15.467Z,7.67
2022-10-26T09:02:42.816Z,7.47
2022-10-26T09:05:17.875Z,7.00
2022-10-26T09:08:12.319Z,6.95
2022-10-26T09:11:19.009Z,6.57
2022-10-26T09:14:10.989Z,6.33
2022-10-26T09:17:02.979Z,6.47
2022-10-26T09:20:09.743Z,6.93
2022-10-26T09:23:16.486Z,6.60
2022-10-26T09:25:46.218Z,6.73
2022-10-26T09:28:18.741Z,6.43
2022-10-26T09:30:47.217Z,6.07
2022-10-26T09:33:22.230Z,6.30
2022-10-26T09:35:57.849Z,5.82
2022-10-26T09:38:50.062Z,6.23
2022-10-26T09:41:40.387Z,6.43
2022-10-26T09:44:31.529Z,6.60
2022-10-26T09:47:29.973Z,5.50
2022-10-26T09:50:02.624Z,4.97
2022-10-26T09:52:29.984Z,4.70
2022-10-26T09:54:57.370Z,4.10
2022-10-26T09:57:24.771Z,5.10
2022-10-26T09:59:53.049Z,3.80
2022-10-26T10:02:44.012Z,4.10
2022-10-26T10:05:50.242Z,3.57
2022-10-26T10:08:39.969Z,3.80
2022-10-26T10:11:10.721Z,3.90
2022-10-26T10:13:40.637Z,4.23
2022-10-26T10:16:27.671Z,4.10
2022-10-26T10:18:57.115Z,4.07
2022-10-26T10:21:48.301Z,3.90
2022-10-26T10:24:37.032Z,4.67
2022-10-26T10:27:17.642Z,3.93
2022-10-26T10:29:47.977Z,3.63
2022-10-26T10:32:39.157Z,4.27
2022-10-26T10:35:24.852Z,4.10
2022-10-26T10:40:23.504Z,3.73
2022-10-26T10:42:53.632Z,4.40
2022-10-26T10:45:27.959Z,4.43
2022-10-26T10:48:37.242Z,3.70
2022-10-26T10:51:12.791Z,3.70
2022-10-26T10:53:51.721Z,4.20
2022-10-26T10:56:49.238Z,3.73
2022-10-26T10:59:41.995Z,3.20
2022-10-26T11:02:48.784Z,4.73
2022-10-26T11:05:48.207Z,4.00
2022-10-26T11:08:23.444Z,4.23
2022-10-26T11:13:26.007Z,4.33
2022-10-26T11:15:58.915Z,3.63
2022-10-26T11:18:50.612Z,3.90
2022-10-26T11:21:38.057Z,3.57
2022-10-26T11:24:29.058Z,3.50
2022-10-26T11:27:17.757Z,3.47
2022-10-26T11:30:26.654Z,4.37
2022-10-26T11:33:18.068Z,3.83
2022-10-26T11:35:52.499Z,3.50
2022-10-26T11:38:56.276Z,3.42
2022-10-26T11:41:48.576Z,3.90
2022-10-26T11:44:55.261Z,3.97
2022-10-26T11:47:37.904Z,3.70
2022-10-26T11:50:31.350Z,4.30
2022-10-26T11:53:04.434Z,3.73
2022-10-26T11:55:32.092Z,3.07
2022-10-26T11:57:59.853Z,4.00
2022-10-26T12:00:28.099Z,3.40
2022-10-26T12:03:03.942Z,3.83
2022-10-26T12:05:48.451Z,4.47
2022-10-26T12:08:27.373Z,3.20
2022-10-26T12:13:42.589Z,3.73
2022-10-26T12:16:43.397Z,3.75
2022-10-26T12:19:20.376Z,3.93
2022-10-26T12:21:50.307Z,4.13
2022-10-26T12:24:35.497Z,4.03
2022-10-26T12:27:05.580Z,3.80
2022-10-26T12:30:12.304Z,3.90
2022-10-26T12:33:18.999Z,4.07
2022-10-26T12:35:46.611Z,3.57
2022-10-26T12:38:53.753Z,3.70
2022-10-26T12:41:40.779Z,4.63
2022-10-26T12:44:36.624Z,3.77
2022-10-26T12:47:05.230Z,4.07
2022-10-26T12:50:11.975Z,3.17
2022-10-26T12:53:05.667Z,2.90
2022-10-26T12:55:55.261Z,3.20
2022-10-26T12:58:41.701Z,3.93
2022-10-26T13:01:28.252Z,3.20
2022-10-26T13:04:20.377Z,3.50
2022-10-26T13:07:14.761Z,3.43
2022-10-26T13:09:47.170Z,3.23
2022-10-26T13:12:14.431Z,3.13
2022-10-26T13:14:59.265Z,3.80
2022-10-26T13:17:29.350Z,3.25
2022-10-26T13:19:59.221Z,3.90
2022-10-26T13:22:26.834Z,2.97
2022-10-26T13:25:01.727Z,3.07
2022-10-26T13:27:59.013Z,3.22
2022-10-26T13:30:44.820Z,3.40
2022-10-26T13:33:20.957Z,3.53
2022-10-26T13:35:49.276Z,4.30
2022-10-26T13:38:20.792Z,3.37
2022-10-26T13:40:48.819Z,2.70
2022-10-26T13:43:21.758Z,3.57
2022-10-26T13:45:58.806Z,4.40
2022-10-26T13:48:45.005Z,3.90
2022-10-26T13:51:25.237Z,4.27
2022-10-26T13:54:01.354Z,3.47
2022-10-26T13:56:37.152Z,3.90
2022-10-26T13:59:11.902Z,4.27
2022-10-26T14:01:39.410Z,4.60
2022-10-26T14:04:27.283Z,5.43
2022-10-26T14:06:55.234Z,4.80
2022-10-26T14:09:22.961Z,4.00
2022-10-26T14:11:53.195Z,5.13
2022-10-26T14:14:28.091Z,4.10
2022-10-26T14:16:55.661Z,4.20
2022-10-26T14:19:30.028Z,5.80
2022-10-26T14:21:57.763Z,3.78
2022-10-26T14:24:45.748Z,4.50
2022-10-26T14:27:18.144Z,4.60
2022-10-26T14:29:49.912Z,4.57
2022-10-26T14:32:28.620Z,3.90
2022-10-26T14:34:56.224Z,5.97
2022-10-26T14:37:39.979Z,4.37
2022-10-26T14:40:13.982Z,4.50
2022-10-26T14:42:47.176Z,4.60
2022-10-26T14:45:49.757Z,5.37
2022-10-26T14:48:45.637Z,4.83
2022-10-26T14:51:22.218Z,4.85
2022-10-26T14:53:52.904Z,5.17
2022-10-26T14:56:40.914Z,4.33
2022-10-26T14:59:18.959Z,4.53
2022-10-26T15:02:09.492Z,5.17
2022-10-26T15:04:38.966Z,4.70
2022-10-26T15:07:34.496Z,5.67
2022-10-26T15:10:01.954Z,6.93
2022-10-26T15:12:37.475Z,5.60
2022-10-26T15:15:23.450Z,5.90
2022-10-26T15:17:59.753Z,5.63
2022-10-26T15:20:29.158Z,5.30
2022-10-26T15:22:59.914Z,6.37
2022-10-26T15:25:29.798Z,5.50
2022-10-26T15:28:11.196Z,6.47
2022-10-26T15:30:38.611Z,6.17
2022-10-26T15:33:22.259Z,7.53
2022-10-26T15:35:49.719Z,7.90
2022-10-26T15:38:17.080Z,7.30
2022-10-26T15:40:44.614Z,8.50
2022-10-26T15:43:12.626Z,8.17
2022-10-26T15:45:48.443Z,10.57
2022-10-26T15:48:22.794Z,15.57
2022-10-26T15:50:50.244Z,19.60
2022-10-26T15:53:20.910Z,15.13
2022-10-26T15:55:50.232Z,16.00
2022-10-26T15:58:17.819Z,12.70
2022-10-26T16:00:45.525Z,12.60
2022-10-26T16:03:17.262Z,12.93
2022-10-26T16:05:44.693Z,10.60
2022-10-26T16:08:17.958Z,9.70
2022-10-26T16:10:46.029Z,11.60
2022-10-26T16:13:14.552Z,14.27
2022-10-26T16:15:42.408Z,13.43
2022-10-26T16:18:09.657Z,14.73
2022-10-26T16:20:37.652Z,12.33
2022-10-26T16:23:08.216Z,13.73
2022-10-26T16:25:40.880Z,11.70
2022-10-26T16:28:08.219Z,11.80
2022-10-26T16:30:37.046Z,10.73
2022-10-26T16:33:04.589Z,10.90
2022-10-26T16:35:31.997Z,11.97
2022-10-26T16:37:59.350Z,13.20
2022-10-26T16:40:26.922Z,11.63
2022-10-26T16:42:54.261Z,12.03
2022-10-26T16:45:21.648Z,13.70
2022-10-26T16:47:49.605Z,11.90
2022-10-26T16:50:20.506Z,13.13
2022-10-26T16:52:47.862Z,15.53
2022-10-26T16:55:15.689Z,16.37
2022-10-26T16:57:42.728Z,13.20
2022-10-26T17:00:10.521Z,10.43
2022-10-26T17:02:37.950Z,9.20
2022-10-26T17:05:07.400Z,9.40
2022-10-26T17:07:36.262Z,11.03
2022-10-26T17:10:03.625Z,10.60
2022-10-26T17:12:31.028Z,10.47
2022-10-26T17:15:00.613Z,11.23
2022-10-26T17:17:28.046Z,11.40
2022-10-26T17:19:55.455Z,11.90
2022-10-26T17:22:24.133Z,11.77
2022-10-26T17:24:51.442Z,11.97
2022-10-26T17:27:19.288Z,12.67
2022-10-26T17:29:46.587Z,12.80
2022-10-26T17:32:15.031Z,13.17
2022-10-26T17:34:43.093Z,12.77
2022-10-26T17:37:10.239Z,12.93
2022-10-26T17:39:37.562Z,15.80
2022-10-26T17:42:04.928Z,17.97
2022-10-26T17:44:33.859Z,17.53
2022-10-26T17:47:01.196Z,16.77
2022-10-26T17:49:29.310Z,15.67
2022-10-26T17:51:57.535Z,16.03
2022-10-26T17:54:24.915Z,16.77
2022-10-26T17:56:52.276Z,26.47
2022-10-26T17:59:20.073Z,27.60
2022-10-26T18:01:47.599Z,28.47
2022-10-26T18:04:15.044Z,28.57
2022-10-26T18:06:42.357Z,28.40
2022-10-26T18:09:10.279Z,27.83
2022-10-26T18:11:37.690Z,27.27
2022-10-26T18:14:05.145Z,24.73
2022-10-26T18:16:32.195Z,22.70
2022-10-26T18:19:02.125Z,25.57
2022-10-26T18:21:31.525Z,21.57
2022-10-26T18:23:59.108Z,24.50
2022-10-26T18:26:29.438Z,23.27
2022-10-26T18:28:57.750Z,23.07
2022-10-26T18:31:26.327Z,23.10
2022-10-26T18:33:59.143Z,23.13
2022-10-26T18:36:26.906Z,20.30
2022-10-26T18:38:54.250Z,20.27
2022-10-26T18:41:22.786Z,19.03
2022-10-26T18:43:51.450Z,20.63
2022-10-26T18:46:23.586Z,19.60
2022-10-26T18:48:51.629Z,21.63
2022-10-26T18:51:21.829Z,22.03
2022-10-26T18:53:49.225Z,23.13
2022-10-26T18:56:19.307Z,22.87
2022-10-26T18:58:48.687Z,23.10
2022-10-26T19:01:39.567Z,22.03
2022-10-26T19:04:08.554Z,21.40
2022-10-26T19:06:39.544Z,23.00
2022-10-26T19:09:07.639Z,23.47
2022-10-26T19:11:35.368Z,22.67
2022-10-26T19:14:02.748Z,23.07
2022-10-26T19:16:45.320Z,22.90
2022-10-26T19:19:14.445Z,23.53
2022-10-26T19:21:41.812Z,22.13
2022-10-26T19:24:13.394Z,21.90
2022-10-26T19:26:43.480Z,22.90
2022-10-26T19:29:16.759Z,23.43
2022-10-26T19:31:46.552Z,22.93
2022-10-26T19:34:15.512Z,20.73
2022-10-26T19:36:47.477Z,21.93
2022-10-26T19:39:16.497Z,20.87
2022-10-26T19:41:47.287Z,21.87
2022-10-26T19:44:15.715Z,22.33
2022-10-26T19:46:44.266Z,22.33
2022-10-26T19:49:13.173Z,22.43
2022-10-26T19:51:45.416Z,21.47
2022-10-26T19:54:15.220Z,23.80
2022-10-26T19:56:42.530Z,26.20
2022-10-26T19:59:11.295Z,25.60
2022-10-26T20:01:39.061Z,23.37
2022-10-26T20:04:07.101Z,22.97
2022-10-26T20:06:34.499Z,24.93
2022-10-26T20:09:02.600Z,28.60
2022-10-26T20:11:32.312Z,29.27
2022-10-26T20:13:59.993Z,26.43
2022-10-26T20:16:27.454Z,26.23
2022-10-26T20:18:54.817Z,29.43
2022-10-26T20:21:22.472Z,31.70
2022-10-26T20:23:49.791Z,29.83
2022-10-26T20:26:19.724Z,29.00
2022-10-26T20:28:52.975Z,26.20
2022-10-26T20:31:20.291Z,24.77
2022-10-26T20:33:51.673Z,32.40
2022-10-26T20:36:19.059Z,30.10
2022-10-26T20:38:46.756Z,29.43
2022-10-26T20:41:14.326Z,26.27
2022-10-26T20:43:41.958Z,27.30
2022-10-26T20:46:19.249Z,25.27
2022-10-26T20:48:46.769Z,21.37
2022-10-26T20:51:20.936Z,22.37
2022-10-26T20:54:01.608Z,27.10
2022-10-26T20:56:29.336Z,30.47
2022-10-26T20:58:58.577Z,29.27
2022-10-26T21:01:31.351Z,31.30
2022-10-26T21:04:00.403Z,31.37
2022-10-26T21:06:28.006Z,32.43
2022-10-26T21:08:56.829Z,28.20
2022-10-26T21:11:25.460Z,31.20
2022-10-26T21:13:53.866Z,31.20
2022-10-26T21:18:49.531Z,33.67
2022-10-26T21:21:16.992Z,30.10
2022-10-26T21:23:44.306Z,33.43
2022-10-26T21:26:14.152Z,32.43
2022-10-26T21:28:43.150Z,32.37
2022-10-26T21:31:11.906Z,30.10
2022-10-26T21:33:39.565Z,33.43
2022-10-26T21:36:09.046Z,33.80
2022-10-26T21:38:36.407Z,31.73
2022-10-26T21:41:05.401Z,33.50
2022-10-26T21:43:34.379Z,30.33
2022-10-26T21:46:04.855Z,32.70
2022-10-26T21:48:33.228Z,32.57
2022-10-26T21:51:03.008Z,31.63
2022-10-26T21:53:30.414Z,33.90
2022-10-26T21:56:09.836Z,32.60
2022-10-26T21:58:37.324Z,34.53
2022-10-26T22:01:07.701Z,31.77
2022-10-26T22:03:35.239Z,31.10
2022-10-26T22:06:02.755Z,31.87
2022-10-26T22:08:30.431Z,29.97
2022-10-26T22:10:57.932Z,28.80
2022-10-26T22:13:25.394Z,29.87
2022-10-26T22:16:11.609Z,29.03
2022-10-26T22:18:40.558Z,27.67
2022-10-26T22:21:08.381Z,28.00
2022-10-26T22:23:38.464Z,29.70
2022-10-26T22:26:08.082Z,29.00
2022-10-26T22:28:41.532Z,29.10
2022-10-26T22:31:13.410Z,28.55
2022-10-26T22:33:42.153Z,26.90
2022-10-26T22:36:11.818Z,29.90
2022-10-26T22:38:39.368Z,28.70
2022-10-26T22:41:06.905Z,28.43
2022-10-26T22:43:34.577Z,29.70
2022-10-26T22:46:23.620Z,28.40
2022-10-26T22:48:55.867Z,28.17
2022-10-26T22:51:24.764Z,28.77
2022-10-26T22:53:53.766Z,28.47
2022-10-26T22:56:22.275Z,29.70
2022-10-26T22:58:52.074Z,29.50
2022-10-26T23:01:22.702Z,29.23
2022-10-26T23:03:50.449Z,30.73
2022-10-26T23:06:18.943Z,30.33
2022-10-26T23:08:46.622Z,32.23
2022-10-26T23:11:16.376Z,30.10
2022-10-26T23:13:43.942Z,31.17
2022-10-26T23:16:13.507Z,29.50
2022-10-26T23:18:41.034Z,29.00
2022-10-26T23:21:10.108Z,29.00
2022-10-26T23:23:37.788Z,28.30
2022-10-26T23:26:08.847Z,29.50
2022-10-26T23:28:36.816Z,30.43
2022-10-26T23:31:04.561Z,29.27
2022-10-26T23:33:32.904Z,28.83
2022-10-26T23:36:01.320Z,27.53
2022-10-26T23:38:28.904Z,28.60
2022-10-26T23:40:58.430Z,27.27
2022-10-26T23:43:26.875Z,25.87
2022-10-26T23:45:54.546Z,28.80
2022-10-26T23:48:22.314Z,27.70
2022-10-26T23:50:50.490Z,28.90
2022-10-26T23:53:20.289Z,27.37
2022-10-26T23:55:48.238Z,28.17
2022-10-26T23:58:16.024Z,28.23
